Aviation Digital Data Service (ADDS)

Output produced by METARs form (0712 UTC 20 October 2018)
found at http://www.aviationweather.gov/metar/data/
 
LDSB 200700Z 03016KT CAVOK 16/07 Q1021
TAF LDSB 200605Z 2007/2106 02009KT CAVOK TX22/2012Z TN14/2105Z 
     BECMG 2008/2010 29008KT 
     TEMPO 2010/2013 20007KT 
     BECMG 2017/2019 02009KT
       
LDDU 200700Z 02017KT 340V060 9999 FEW050 19/08 Q1019 NOSIG
TAF LDDU 200525Z 2006/2106 02015KT 9999 FEW050 TX23/2010Z TN16/2105Z 
     BECMG 2008/2010 24008KT 
     TEMPO 2010/2014 26009KT 
     BECMG 2017/2019 02012KT
       
LDOS 200700Z 28009KT 0200 FG VV002 09/09 Q1023
TAF LDOS 200525Z 2006/2106 31006KT 0200 FG VV002 TX21/2013Z TN09/2006Z 
     BECMG 2008/2010 CAVOK 
     BECMG 2100/2102 32012KT
       
LDPL 200700Z 04009KT CAVOK 17/09 Q1022 NOSIG
TAF LDPL 200525Z 2006/2106 06010KT CAVOK TX23/2013Z TN13/2104Z 
     PROB30 2012/2016 27006KT
       
LDRI 200700Z 13003KT 070V180 CAVOK 18/09 Q1023
TAF LDRI 200525Z 2006/2106 VRB05KT CAVOK TX23/2013Z TN15/2104Z 
     TEMPO 2006/2106 06012KT
       
LDSP 200700Z VRB02KT CAVOK 21/07 Q1020 BECMG 04008KT
TAF LDSP 200525Z 2006/2106 03008KT CAVOK TX24/2012Z TN16/2103Z 
     BECMG 2009/2011 15006KT 
     BECMG 2012/2014 23007KT 
     BECMG 2015/2017 04008KT 
     PROB40 2021/2106 34006KT
       
LDZD 200700Z VRB02KT CAVOK 14/12 Q1021 BECMG 06007KT
TAF LDZD 200525Z 2006/2106 06007KT 9999 FEW060 TX24/2012Z TN10/2103Z 
     TEMPO 2008/2011 05011KT 
     TEMPO 2011/2014 33008KT
       
LDZA 200700Z VRB01KT 3000 BR NSC 09/08 Q1024 BECMG TL0830 6000 NSW
TAF COR LDZA 200634Z 2006/2106 VRB02KT 0300 FG VV002 TX20/2013Z TN07/2006Z 
     BECMG 2006/2007 2000 BR SCT020 
     BECMG 2007/2009 9999 
     BECMG 2100/2102 05010KT 
     TEMPO 2102/2106 RA BKN035